Terminal Aerodrome Forecast
Issued by NWS Charleston, WV

Current Version | Previous Version | Text Only | Print | Product List | Glossary Off
Versions: 1 2 3 4 5 6 7 8 9 10 11 12 13 14 15 16 17 18 19 20 21 22 23

000
FTUS41 KRLX 222200 AAA
TAFCRW
TAF AMD
KCRW 222217Z 2222/2318 31010G15KT P6SM BKN035
     FM222300 30012G18KT P6SM SCT050
     FM230500 30008KT P6SM SCT040
     FM231700 31008KT P6SM FEW140=

USA.gov is the U.S. government's official web portal to all federal, state and local government web resources and services.